Terminal Aerodrome Forecast
Issued by NWS

Current Version | Previous Version | Text Only | Print | Product List | Glossary On
Versions: 1 2 3 4 5 6 7 8 9 10 11 12 13 14 15
944
FTUS42 KMLB 272338
TAFFPR
TAF
KFPR 272338Z 2800/2824 06011KT P6SM VCSH SCT025 SCT050
      TEMPO 2800/2802 3SM SHRA BKN025
     FM280200 05005KT P6SM VCSH SCT025
     FM281400 06010KT P6SM SCT035=

USA.gov is the U.S. government's official web portal to all federal, state and local government web resources and services.